Elvira, Illinois
Current Conditions -  °F | °C
As of 3:52 PM on Saturday 27 Dec 2014 (Local Time) from KMWA Reporting Station
Haze Haze  
Wind Chill: 41°   Ceiling: 500
Heat Index: 46°   Visibility: 5mi
Dew Point: 45°   Wind: 12mph
Humidity: 93%   Direction: 330°NNW
Pressure: 30.13"   Gusts: NA
Location:  37.4664°N, 88.9884°W
Report Text: KMWA 272152Z 33010KT 5SM BR BKN005 OVC012 08/07 A3013
Loading
Personal Weather Stations






























Interactive Weather Map New forecast layout! Learn more

10-Day Weather Forecast

Advertisements
Track Severe Weather on mobile